sensor_id;sensor_type;location;lat;lon;timestamp;temperature;humidity
17697;DHT22;8967;47.984;7.842;2023-11-22T00:00:21;9.70;99.90
17697;DHT22;8967;47.984;7.842;2023-11-22T00:02:48;9.80;99.90
17697;DHT22;8967;47.984;7.842;2023-11-22T00:05:16;9.80;99.90
17697;DHT22;8967;47.984;7.842;2023-11-22T00:07:43;9.80;99.90
17697;DHT22;8967;47.984;7.842;2023-11-22T00:10:10;9.80;99.90
17697;DHT22;8967;47.984;7.842;2023-11-22T00:12:39;9.80;99.90
17697;DHT22;8967;47.984;7.842;2023-11-22T00:15:09;9.80;99.90
17697;DHT22;8967;47.984;7.842;2023-11-22T00:17:37;9.70;99.90
17697;DHT22;8967;47.984;7.842;2023-11-22T00:20:06;9.70;99.90
17697;DHT22;8967;47.984;7.842;2023-11-22T00:22:33;9.70;99.90
17697;DHT22;8967;47.984;7.842;2023-11-22T00:25:04;9.70;99.90
17697;DHT22;8967;47.984;7.842;2023-11-22T00:27:33;9.70;99.90
17697;DHT22;8967;47.984;7.842;2023-11-22T00:30:04;9.70;99.90
17697;DHT22;8967;47.984;7.842;2023-11-22T00:32:31;9.60;99.90
17697;DHT22;8967;47.984;7.842;2023-11-22T00:34:59;9.60;99.90
17697;DHT22;8967;47.984;7.842;2023-11-22T00:37:26;9.60;99.90
17697;DHT22;8967;47.984;7.842;2023-11-22T00:39:53;9.60;99.90
17697;DHT22;8967;47.984;7.842;2023-11-22T00:42:20;9.60;99.90
17697;DHT22;8967;47.984;7.842;2023-11-22T00:44:48;9.60;99.90
17697;DHT22;8967;47.984;7.842;2023-11-22T00:47:19;9.60;99.90
17697;DHT22;8967;47.984;7.842;2023-11-22T00:49:46;9.60;99.90
17697;DHT22;8967;47.984;7.842;2023-11-22T00:52:15;9.60;99.90
17697;DHT22;8967;47.984;7.842;2023-11-22T00:54:42;9.60;99.90
17697;DHT22;8967;47.984;7.842;2023-11-22T00:57:13;9.60;99.90
17697;DHT22;8967;47.984;7.842;2023-11-22T00:59:40;9.60;99.90
17697;DHT22;8967;47.984;7.842;2023-11-22T01:02:07;9.60;99.90
17697;DHT22;8967;47.984;7.842;2023-11-22T01:04:36;9.60;99.90
17697;DHT22;8967;47.984;7.842;2023-11-22T01:07:04;9.60;99.90
17697;DHT22;8967;47.984;7.842;2023-11-22T01:09:31;9.60;99.90
17697;DHT22;8967;47.984;7.842;2023-11-22T01:12:01;9.60;99.90
17697;DHT22;8967;47.984;7.842;2023-11-22T01:14:28;9.60;99.90
17697;DHT22;8967;47.984;7.842;2023-11-22T01:16:56;9.60;99.90
17697;DHT22;8967;47.984;7.842;2023-11-22T01:19:25;9.60;99.90
17697;DHT22;8967;47.984;7.842;2023-11-22T01:21:53;9.50;99.90
17697;DHT22;8967;47.984;7.842;2023-11-22T01:24:23;9.50;99.90
17697;DHT22;8967;47.984;7.842;2023-11-22T01:26:51;9.50;99.90
17697;DHT22;8967;47.984;7.842;2023-11-22T01:29:19;9.60;99.90
17697;DHT22;8967;47.984;7.842;2023-11-22T01:31:48;9.60;99.90
17697;DHT22;8967;47.984;7.842;2023-11-22T01:34:15;9.60;99.90
17697;DHT22;8967;47.984;7.842;2023-11-22T01:36:43;9.60;99.90
17697;DHT22;8967;47.984;7.842;2023-11-22T01:39:12;9.60;99.90
17697;DHT22;8967;47.984;7.842;2023-11-22T01:41:40;9.60;99.90
17697;DHT22;8967;47.984;7.842;2023-11-22T01:44:08;9.60;99.90
17697;DHT22;8967;47.984;7.842;2023-11-22T01:46:35;9.60;99.90
17697;DHT22;8967;47.984;7.842;2023-11-22T01:49:04;9.60;99.90
17697;DHT22;8967;47.984;7.842;2023-11-22T01:51:31;9.60;99.90
17697;DHT22;8967;47.984;7.842;2023-11-22T01:53:59;9.60;99.90
17697;DHT22;8967;47.984;7.842;2023-11-22T01:56:29;9.60;99.90
17697;DHT22;8967;47.984;7.842;2023-11-22T01:59:00;9.60;99.90
17697;DHT22;8967;47.984;7.842;2023-11-22T02:01:27;9.60;99.90
17697;DHT22;8967;47.984;7.842;2023-11-22T02:03:57;9.60;99.90
17697;DHT22;8967;47.984;7.842;2023-11-22T02:06:24;9.60;99.90
17697;DHT22;8967;47.984;7.842;2023-11-22T02:08:53;9.60;99.90
17697;DHT22;8967;47.984;7.842;2023-11-22T02:11:21;9.60;99.90
17697;DHT22;8967;47.984;7.842;2023-11-22T02:13:51;9.60;99.90
17697;DHT22;8967;47.984;7.842;2023-11-22T02:16:19;9.60;99.90
17697;DHT22;8967;47.984;7.842;2023-11-22T02:18:49;9.60;99.90
17697;DHT22;8967;47.984;7.842;2023-11-22T02:21:17;9.60;99.90
17697;DHT22;8967;47.984;7.842;2023-11-22T02:23:47;9.60;99.90
17697;DHT22;8967;47.984;7.842;2023-11-22T02:26:16;9.70;99.90
17697;DHT22;8967;47.984;7.842;2023-11-22T02:28:43;9.60;99.90
17697;DHT22;8967;47.984;7.842;2023-11-22T02:31:10;9.70;99.90
17697;DHT22;8967;47.984;7.842;2023-11-22T02:33:38;9.60;99.90
17697;DHT22;8967;47.984;7.842;2023-11-22T02:36:06;9.70;99.90
17697;DHT22;8967;47.984;7.842;2023-11-22T02:38:33;9.60;99.90
17697;DHT22;8967;47.984;7.842;2023-11-22T02:41:02;9.60;99.90
17697;DHT22;8967;47.984;7.842;2023-11-22T02:43:29;9.60;99.90
17697;DHT22;8967;47.984;7.842;2023-11-22T02:45:57;9.60;99.90
17697;DHT22;8967;47.984;7.842;2023-11-22T02:48:24;9.60;99.90
17697;DHT22;8967;47.984;7.842;2023-11-22T02:50:51;9.60;99.90
17697;DHT22;8967;47.984;7.842;2023-11-22T02:53:24;9.60;99.90
17697;DHT22;8967;47.984;7.842;2023-11-22T02:55:51;9.60;99.90
17697;DHT22;8967;47.984;7.842;2023-11-22T02:58:22;9.60;99.90
17697;DHT22;8967;47.984;7.842;2023-11-22T03:00:49;9.60;99.90
17697;DHT22;8967;47.984;7.842;2023-11-22T03:03:20;9.60;99.90
17697;DHT22;8967;47.984;7.842;2023-11-22T03:05:47;9.50;99.90
17697;DHT22;8967;47.984;7.842;2023-11-22T03:08:16;9.50;99.90
17697;DHT22;8967;47.984;7.842;2023-11-22T03:10:43;9.50;99.90
17697;DHT22;8967;47.984;7.842;2023-11-22T03:13:11;9.40;99.90
17697;DHT22;8967;47.984;7.842;2023-11-22T03:15:43;9.40;99.90
17697;DHT22;8967;47.984;7.842;2023-11-22T03:18:12;9.30;99.90
17697;DHT22;8967;47.984;7.842;2023-11-22T03:20:39;9.30;99.90
17697;DHT22;8967;47.984;7.842;2023-11-22T03:23:08;9.30;99.90
17697;DHT22;8967;47.984;7.842;2023-11-22T03:25:36;9.30;99.90
17697;DHT22;8967;47.984;7.842;2023-11-22T03:28:03;9.20;99.90
17697;DHT22;8967;47.984;7.842;2023-11-22T03:30:33;9.20;99.90
17697;DHT22;8967;47.984;7.842;2023-11-22T03:33:01;9.10;99.90
17697;DHT22;8967;47.984;7.842;2023-11-22T03:35:28;9.10;99.90
17697;DHT22;8967;47.984;7.842;2023-11-22T03:37:55;9.10;99.90
17697;DHT22;8967;47.984;7.842;2023-11-22T03:40:22;9.00;99.90
17697;DHT22;8967;47.984;7.842;2023-11-22T03:42:50;9.00;99.90
17697;DHT22;8967;47.984;7.842;2023-11-22T03:45:17;8.90;99.90
17697;DHT22;8967;47.984;7.842;2023-11-22T03:47:44;8.90;99.90
17697;DHT22;8967;47.984;7.842;2023-11-22T03:50:15;8.90;99.90
17697;DHT22;8967;47.984;7.842;2023-11-22T03:52:42;8.80;99.90
17697;DHT22;8967;47.984;7.842;2023-11-22T03:55:11;8.80;99.90
17697;DHT22;8967;47.984;7.842;2023-11-22T03:57:41;8.80;99.90
17697;DHT22;8967;47.984;7.842;2023-11-22T04:00:09;8.80;99.90
17697;DHT22;8967;47.984;7.842;2023-11-22T04:02:40;8.70;99.90
17697;DHT22;8967;47.984;7.842;2023-11-22T04:05:08;8.70;99.90
17697;DHT22;8967;47.984;7.842;2023-11-22T04:07:38;8.60;99.90
17697;DHT22;8967;47.984;7.842;2023-11-22T04:10:05;8.60;99.90
17697;DHT22;8967;47.984;7.842;2023-11-22T04:12:33;8.50;99.90
17697;DHT22;8967;47.984;7.842;2023-11-22T04:15:00;8.50;99.90
17697;DHT22;8967;47.984;7.842;2023-11-22T04:17:27;8.40;99.90
17697;DHT22;8967;47.984;7.842;2023-11-22T04:19:54;8.40;99.90
17697;DHT22;8967;47.984;7.842;2023-11-22T04:22:23;8.40;99.90
17697;DHT22;8967;47.984;7.842;2023-11-22T04:24:51;8.30;99.90
17697;DHT22;8967;47.984;7.842;2023-11-22T04:27:18;8.30;99.90
17697;DHT22;8967;47.984;7.842;2023-11-22T04:29:48;8.20;99.90
17697;DHT22;8967;47.984;7.842;2023-11-22T04:32:14;8.20;99.90
17697;DHT22;8967;47.984;7.842;2023-11-22T04:34:42;8.10;99.90
17697;DHT22;8967;47.984;7.842;2023-11-22T04:37:10;8.10;99.90
17697;DHT22;8967;47.984;7.842;2023-11-22T04:39:37;8.10;99.90
17697;DHT22;8967;47.984;7.842;2023-11-22T04:42:06;8.10;99.90
17697;DHT22;8967;47.984;7.842;2023-11-22T04:44:33;8.00;99.90
17697;DHT22;8967;47.984;7.842;2023-11-22T04:47:00;8.00;99.90
17697;DHT22;8967;47.984;7.842;2023-11-22T04:49:29;8.00;99.90
17697;DHT22;8967;47.984;7.842;2023-11-22T04:51:58;7.90;99.90
17697;DHT22;8967;47.984;7.842;2023-11-22T04:54:25;7.90;99.90
17697;DHT22;8967;47.984;7.842;2023-11-22T04:56:52;7.90;99.90
17697;DHT22;8967;47.984;7.842;2023-11-22T04:59:20;7.90;99.90
17697;DHT22;8967;47.984;7.842;2023-11-22T05:01:47;7.80;99.90
17697;DHT22;8967;47.984;7.842;2023-11-22T05:04:15;7.80;99.90
17697;DHT22;8967;47.984;7.842;2023-11-22T05:06:44;7.80;99.90
17697;DHT22;8967;47.984;7.842;2023-11-22T05:09:11;7.80;99.90
17697;DHT22;8967;47.984;7.842;2023-11-22T05:11:40;7.80;99.90
17697;DHT22;8967;47.984;7.842;2023-11-22T05:14:10;7.80;99.90
17697;DHT22;8967;47.984;7.842;2023-11-22T05:16:41;7.70;99.90
17697;DHT22;8967;47.984;7.842;2023-11-22T05:19:10;7.70;99.90
17697;DHT22;8967;47.984;7.842;2023-11-22T05:21:37;7.70;99.90
17697;DHT22;8967;47.984;7.842;2023-11-22T05:24:07;7.70;99.90
17697;DHT22;8967;47.984;7.842;2023-11-22T05:26:34;7.70;99.90
17697;DHT22;8967;47.984;7.842;2023-11-22T05:29:01;7.70;99.90
17697;DHT22;8967;47.984;7.842;2023-11-22T05:31:30;7.70;99.90
17697;DHT22;8967;47.984;7.842;2023-11-22T05:34:01;7.70;99.90
17697;DHT22;8967;47.984;7.842;2023-11-22T05:36:28;7.70;99.90
17697;DHT22;8967;47.984;7.842;2023-11-22T05:38:55;7.60;99.90
17697;DHT22;8967;47.984;7.842;2023-11-22T05:41:24;7.60;99.90
17697;DHT22;8967;47.984;7.842;2023-11-22T05:43:52;7.60;99.90
17697;DHT22;8967;47.984;7.842;2023-11-22T05:46:22;7.70;99.90
17697;DHT22;8967;47.984;7.842;2023-11-22T05:48:50;7.70;99.90
17697;DHT22;8967;47.984;7.842;2023-11-22T05:51:19;7.60;99.90
17697;DHT22;8967;47.984;7.842;2023-11-22T05:53:50;7.60;99.90
17697;DHT22;8967;47.984;7.842;2023-11-22T05:56:17;7.60;99.90
17697;DHT22;8967;47.984;7.842;2023-11-22T05:58:45;7.60;99.90
17697;DHT22;8967;47.984;7.842;2023-11-22T06:01:12;7.60;99.90
17697;DHT22;8967;47.984;7.842;2023-11-22T06:03:39;7.60;99.90
17697;DHT22;8967;47.984;7.842;2023-11-22T06:06:06;7.60;99.90
17697;DHT22;8967;47.984;7.842;2023-11-22T06:08:35;7.50;99.90
17697;DHT22;8967;47.984;7.842;2023-11-22T06:11:04;7.50;99.90
17697;DHT22;8967;47.984;7.842;2023-11-22T06:13:31;7.50;99.90
17697;DHT22;8967;47.984;7.842;2023-11-22T06:16:01;7.50;99.90
17697;DHT22;8967;47.984;7.842;2023-11-22T06:18:28;7.50;99.90
17697;DHT22;8967;47.984;7.842;2023-11-22T06:20:56;7.40;99.90
17697;DHT22;8967;47.984;7.842;2023-11-22T06:23:23;7.40;99.90
17697;DHT22;8967;47.984;7.842;2023-11-22T06:25:54;7.40;99.90
17697;DHT22;8967;47.984;7.842;2023-11-22T06:28:21;7.30;99.90
17697;DHT22;8967;47.984;7.842;2023-11-22T06:30:48;7.30;99.90
17697;DHT22;8967;47.984;7.842;2023-11-22T06:33:15;7.30;99.90
17697;DHT22;8967;47.984;7.842;2023-11-22T06:35:43;7.20;99.90
17697;DHT22;8967;47.984;7.842;2023-11-22T06:38:10;7.20;99.90
17697;DHT22;8967;47.984;7.842;2023-11-22T06:40:37;7.20;99.90
17697;DHT22;8967;47.984;7.842;2023-11-22T06:43:05;7.20;99.90
17697;DHT22;8967;47.984;7.842;2023-11-22T06:45:32;7.20;99.90
17697;DHT22;8967;47.984;7.842;2023-11-22T06:48:03;7.10;99.90
17697;DHT22;8967;47.984;7.842;2023-11-22T06:50:30;7.10;99.90
17697;DHT22;8967;47.984;7.842;2023-11-22T06:52:57;7.10;99.90
17697;DHT22;8967;47.984;7.842;2023-11-22T06:55:24;7.10;99.90
17697;DHT22;8967;47.984;7.842;2023-11-22T06:57:53;7.10;99.90
17697;DHT22;8967;47.984;7.842;2023-11-22T07:00:21;7.10;99.90
17697;DHT22;8967;47.984;7.842;2023-11-22T07:02:48;7.10;99.90
17697;DHT22;8967;47.984;7.842;2023-11-22T07:05:15;7.00;99.90
17697;DHT22;8967;47.984;7.842;2023-11-22T07:07:42;7.00;99.90
17697;DHT22;8967;47.984;7.842;2023-11-22T07:10:10;7.00;99.90
17697;DHT22;8967;47.984;7.842;2023-11-22T07:12:39;7.00;99.90
17697;DHT22;8967;47.984;7.842;2023-11-22T07:15:09;7.00;99.90
17697;DHT22;8967;47.984;7.842;2023-11-22T07:17:40;7.00;99.90
17697;DHT22;8967;47.984;7.842;2023-11-22T07:20:10;7.00;99.90
17697;DHT22;8967;47.984;7.842;2023-11-22T07:22:42;7.00;99.90
17697;DHT22;8967;47.984;7.842;2023-11-22T07:25:09;7.00;99.90
17697;DHT22;8967;47.984;7.842;2023-11-22T07:27:44;7.00;99.90
17697;DHT22;8967;47.984;7.842;2023-11-22T07:30:14;7.00;99.90
17697;DHT22;8967;47.984;7.842;2023-11-22T07:32:45;6.90;99.90
17697;DHT22;8967;47.984;7.842;2023-11-22T07:35:12;6.90;99.90
17697;DHT22;8967;47.984;7.842;2023-11-22T07:37:43;6.90;99.90
17697;DHT22;8967;47.984;7.842;2023-11-22T07:40:11;6.90;99.90
17697;DHT22;8967;47.984;7.842;2023-11-22T07:42:39;6.90;99.90
17697;DHT22;8967;47.984;7.842;2023-11-22T07:45:07;6.90;99.90
17697;DHT22;8967;47.984;7.842;2023-11-22T07:47:37;6.90;99.90
17697;DHT22;8967;47.984;7.842;2023-11-22T07:50:09;6.90;99.90
17697;DHT22;8967;47.984;7.842;2023-11-22T07:52:37;6.90;99.90
17697;DHT22;8967;47.984;7.842;2023-11-22T07:55:06;6.80;99.90
17697;DHT22;8967;47.984;7.842;2023-11-22T07:57:36;6.80;99.90
17697;DHT22;8967;47.984;7.842;2023-11-22T08:00:05;6.80;99.90
17697;DHT22;8967;47.984;7.842;2023-11-22T08:02:39;6.70;99.90
17697;DHT22;8967;47.984;7.842;2023-11-22T08:05:10;6.70;99.90
17697;DHT22;8967;47.984;7.842;2023-11-22T08:07:38;6.70;99.90
17697;DHT22;8967;47.984;7.842;2023-11-22T08:10:09;6.70;99.90
17697;DHT22;8967;47.984;7.842;2023-11-22T08:12:45;6.70;99.90
17697;DHT22;8967;47.984;7.842;2023-11-22T08:15:13;6.70;99.90
17697;DHT22;8967;47.984;7.842;2023-11-22T08:17:42;6.80;99.90
17697;DHT22;8967;47.984;7.842;2023-11-22T08:20:11;6.80;99.90
17697;DHT22;8967;47.984;7.842;2023-11-22T08:22:42;6.80;99.90
17697;DHT22;8967;47.984;7.842;2023-11-22T08:25:11;6.70;99.90
17697;DHT22;8967;47.984;7.842;2023-11-22T08:27:41;6.70;99.90
17697;DHT22;8967;47.984;7.842;2023-11-22T08:30:11;6.70;99.90
17697;DHT22;8967;47.984;7.842;2023-11-22T08:32:41;6.70;99.90
17697;DHT22;8967;47.984;7.842;2023-11-22T08:35:13;6.70;99.90
17697;DHT22;8967;47.984;7.842;2023-11-22T08:37:41;6.70;99.90
17697;DHT22;8967;47.984;7.842;2023-11-22T08:40:10;6.60;99.90
17697;DHT22;8967;47.984;7.842;2023-11-22T08:42:42;6.70;99.90
17697;DHT22;8967;47.984;7.842;2023-11-22T08:45:10;6.60;99.90
17697;DHT22;8967;47.984;7.842;2023-11-22T08:47:38;6.60;99.90
17697;DHT22;8967;47.984;7.842;2023-11-22T08:50:07;6.60;99.90
17697;DHT22;8967;47.984;7.842;2023-11-22T08:52:40;6.60;99.90
17697;DHT22;8967;47.984;7.842;2023-11-22T08:55:08;6.60;99.90
17697;DHT22;8967;47.984;7.842;2023-11-22T08:57:38;6.60;99.90
17697;DHT22;8967;47.984;7.842;2023-11-22T09:00:07;6.70;99.90
17697;DHT22;8967;47.984;7.842;2023-11-22T09:02:35;6.70;99.90
17697;DHT22;8967;47.984;7.842;2023-11-22T09:05:08;6.70;99.90
17697;DHT22;8967;47.984;7.842;2023-11-22T09:07:35;6.70;99.90
17697;DHT22;8967;47.984;7.842;2023-11-22T09:10:07;6.70;99.90
17697;DHT22;8967;47.984;7.842;2023-11-22T09:12:36;6.70;99.90
17697;DHT22;8967;47.984;7.842;2023-11-22T09:15:06;6.70;99.90
17697;DHT22;8967;47.984;7.842;2023-11-22T09:17:35;6.60;99.90
17697;DHT22;8967;47.984;7.842;2023-11-22T09:20:03;6.70;99.90
17697;DHT22;8967;47.984;7.842;2023-11-22T09:22:35;6.70;99.90
17697;DHT22;8967;47.984;7.842;2023-11-22T09:25:07;6.70;99.90
17697;DHT22;8967;47.984;7.842;2023-11-22T09:27:37;6.70;99.90
17697;DHT22;8967;47.984;7.842;2023-11-22T09:30:08;6.80;99.90
17697;DHT22;8967;47.984;7.842;2023-11-22T09:32:48;6.80;99.90
17697;DHT22;8967;47.984;7.842;2023-11-22T09:35:15;6.80;99.90
17697;DHT22;8967;47.984;7.842;2023-11-22T09:37:44;6.80;99.90
17697;DHT22;8967;47.984;7.842;2023-11-22T09:40:17;6.80;99.90
17697;DHT22;8967;47.984;7.842;2023-11-22T09:42:46;6.80;99.90
17697;DHT22;8967;47.984;7.842;2023-11-22T09:45:17;6.80;99.90
17697;DHT22;8967;47.984;7.842;2023-11-22T09:47:45;6.90;99.90
17697;DHT22;8967;47.984;7.842;2023-11-22T09:50:17;6.90;99.90
17697;DHT22;8967;47.984;7.842;2023-11-22T09:52:47;6.90;99.90
17697;DHT22;8967;47.984;7.842;2023-11-22T09:55:18;6.90;99.90
17697;DHT22;8967;47.984;7.842;2023-11-22T09:57:46;6.90;99.90
17697;DHT22;8967;47.984;7.842;2023-11-22T10:00:14;6.90;99.90
17697;DHT22;8967;47.984;7.842;2023-11-22T10:02:44;6.90;99.90
17697;DHT22;8967;47.984;7.842;2023-11-22T10:05:12;6.90;99.90
17697;DHT22;8967;47.984;7.842;2023-11-22T10:07:39;6.90;99.90
17697;DHT22;8967;47.984;7.842;2023-11-22T10:10:07;6.80;99.90
17697;DHT22;8967;47.984;7.842;2023-11-22T10:12:42;6.80;99.90
17697;DHT22;8967;47.984;7.842;2023-11-22T10:15:13;6.80;99.90
17697;DHT22;8967;47.984;7.842;2023-11-22T10:17:47;6.80;99.90
17697;DHT22;8967;47.984;7.842;2023-11-22T10:20:15;6.80;99.90
17697;DHT22;8967;47.984;7.842;2023-11-22T10:22:47;6.80;99.90
17697;DHT22;8967;47.984;7.842;2023-11-22T10:25:15;6.80;99.90
17697;DHT22;8967;47.984;7.842;2023-11-22T10:27:46;6.80;99.90
17697;DHT22;8967;47.984;7.842;2023-11-22T10:30:14;6.80;99.90
17697;DHT22;8967;47.984;7.842;2023-11-22T10:32:42;6.90;99.90
17697;DHT22;8967;47.984;7.842;2023-11-22T10:35:09;6.90;99.90
17697;DHT22;8967;47.984;7.842;2023-11-22T10:37:36;6.90;99.90
17697;DHT22;8967;47.984;7.842;2023-11-22T10:40:04;7.00;99.90
17697;DHT22;8967;47.984;7.842;2023-11-22T10:42:33;6.90;99.90
17697;DHT22;8967;47.984;7.842;2023-11-22T10:45:03;6.90;99.90
17697;DHT22;8967;47.984;7.842;2023-11-22T10:47:37;6.90;99.90
17697;DHT22;8967;47.984;7.842;2023-11-22T10:50:08;7.00;99.90
17697;DHT22;8967;47.984;7.842;2023-11-22T10:52:36;7.00;99.90
17697;DHT22;8967;47.984;7.842;2023-11-22T10:55:04;7.00;99.90
17697;DHT22;8967;47.984;7.842;2023-11-22T10:57:40;7.00;99.90
17697;DHT22;8967;47.984;7.842;2023-11-22T11:00:14;7.00;99.90
17697;DHT22;8967;47.984;7.842;2023-11-22T11:02:44;7.00;99.90
17697;DHT22;8967;47.984;7.842;2023-11-22T11:05:16;7.00;99.90
17697;DHT22;8967;47.984;7.842;2023-11-22T11:07:49;7.00;99.90
17697;DHT22;8967;47.984;7.842;2023-11-22T11:10:21;7.00;99.90
17697;DHT22;8967;47.984;7.842;2023-11-22T11:12:49;7.00;99.90
17697;DHT22;8967;47.984;7.842;2023-11-22T11:15:18;7.00;99.90
17697;DHT22;8967;47.984;7.842;2023-11-22T11:17:49;7.00;99.90
17697;DHT22;8967;47.984;7.842;2023-11-22T11:20:17;7.00;99.90
17697;DHT22;8967;47.984;7.842;2023-11-22T11:22:47;6.90;99.90
17697;DHT22;8967;47.984;7.842;2023-11-22T11:25:16;6.90;99.90
17697;DHT22;8967;47.984;7.842;2023-11-22T11:27:44;6.90;99.90
17697;DHT22;8967;47.984;7.842;2023-11-22T11:30:48;6.90;99.90
17697;DHT22;8967;47.984;7.842;2023-11-22T11:33:19;6.90;99.90
17697;DHT22;8967;47.984;7.842;2023-11-22T11:35:57;6.90;99.90
17697;DHT22;8967;47.984;7.842;2023-11-22T11:38:31;6.90;99.90
17697;DHT22;8967;47.984;7.842;2023-11-22T11:41:08;6.90;99.90
17697;DHT22;8967;47.984;7.842;2023-11-22T11:43:39;6.90;99.90
17697;DHT22;8967;47.984;7.842;2023-11-22T11:46:11;6.90;99.90
17697;DHT22;8967;47.984;7.842;2023-11-22T11:48:44;6.80;99.90
17697;DHT22;8967;47.984;7.842;2023-11-22T11:51:14;6.80;99.90
17697;DHT22;8967;47.984;7.842;2023-11-22T11:53:42;6.80;99.90
17697;DHT22;8967;47.984;7.842;2023-11-22T11:56:12;6.70;99.90
17697;DHT22;8967;47.984;7.842;2023-11-22T11:58:41;6.70;99.90
17697;DHT22;8967;47.984;7.842;2023-11-22T12:01:08;6.70;99.90
17697;DHT22;8967;47.984;7.842;2023-11-22T12:03:37;6.70;99.90
17697;DHT22;8967;47.984;7.842;2023-11-22T12:06:07;6.60;99.90
17697;DHT22;8967;47.984;7.842;2023-11-22T12:08:35;6.60;99.90
17697;DHT22;8967;47.984;7.842;2023-11-22T12:11:05;6.50;99.90
17697;DHT22;8967;47.984;7.842;2023-11-22T12:13:34;6.50;99.90
17697;DHT22;8967;47.984;7.842;2023-11-22T12:16:06;6.50;99.90
17697;DHT22;8967;47.984;7.842;2023-11-22T12:18:42;6.40;99.90
17697;DHT22;8967;47.984;7.842;2023-11-22T12:21:12;6.30;99.90
17697;DHT22;8967;47.984;7.842;2023-11-22T12:23:42;6.30;99.90
17697;DHT22;8967;47.984;7.842;2023-11-22T12:26:12;6.20;99.90
17697;DHT22;8967;47.984;7.842;2023-11-22T12:28:40;6.20;99.90
17697;DHT22;8967;47.984;7.842;2023-11-22T12:31:09;6.20;99.90
17697;DHT22;8967;47.984;7.842;2023-11-22T12:33:37;6.10;99.90
17697;DHT22;8967;47.984;7.842;2023-11-22T12:36:08;6.10;99.90
17697;DHT22;8967;47.984;7.842;2023-11-22T12:38:37;6.10;99.90
17697;DHT22;8967;47.984;7.842;2023-11-22T12:41:06;6.10;99.90
17697;DHT22;8967;47.984;7.842;2023-11-22T12:43:33;6.10;99.90
17697;DHT22;8967;47.984;7.842;2023-11-22T12:46:04;6.10;99.90
17697;DHT22;8967;47.984;7.842;2023-11-22T12:48:33;6.10;99.90
17697;DHT22;8967;47.984;7.842;2023-11-22T12:51:01;6.10;99.90
17697;DHT22;8967;47.984;7.842;2023-11-22T12:53:31;6.10;99.90
17697;DHT22;8967;47.984;7.842;2023-11-22T12:55:59;6.10;99.90
17697;DHT22;8967;47.984;7.842;2023-11-22T12:58:30;6.10;99.90
17697;DHT22;8967;47.984;7.842;2023-11-22T13:00:59;6.10;99.90
17697;DHT22;8967;47.984;7.842;2023-11-22T13:03:28;6.10;99.90
17697;DHT22;8967;47.984;7.842;2023-11-22T13:05:57;6.10;99.90
17697;DHT22;8967;47.984;7.842;2023-11-22T13:08:24;6.10;99.90
17697;DHT22;8967;47.984;7.842;2023-11-22T13:10:56;6.00;99.90
17697;DHT22;8967;47.984;7.842;2023-11-22T13:13:25;6.00;99.90
17697;DHT22;8967;47.984;7.842;2023-11-22T13:15:53;6.00;99.90
17697;DHT22;8967;47.984;7.842;2023-11-22T13:18:20;6.00;99.90
17697;DHT22;8967;47.984;7.842;2023-11-22T13:20:48;6.00;99.90
17697;DHT22;8967;47.984;7.842;2023-11-22T13:23:16;6.00;99.90
17697;DHT22;8967;47.984;7.842;2023-11-22T13:25:43;6.00;99.90
17697;DHT22;8967;47.984;7.842;2023-11-22T13:28:13;6.00;99.90
17697;DHT22;8967;47.984;7.842;2023-11-22T13:30:40;6.00;99.90
17697;DHT22;8967;47.984;7.842;2023-11-22T13:33:07;6.00;99.90
17697;DHT22;8967;47.984;7.842;2023-11-22T13:35:34;6.00;99.90
17697;DHT22;8967;47.984;7.842;2023-11-22T13:38:04;5.90;99.90
17697;DHT22;8967;47.984;7.842;2023-11-22T13:40:36;5.90;99.90
17697;DHT22;8967;47.984;7.842;2023-11-22T13:43:05;5.90;99.90
17697;DHT22;8967;47.984;7.842;2023-11-22T13:45:35;5.90;99.90
17697;DHT22;8967;47.984;7.842;2023-11-22T13:48:04;5.90;99.90
17697;DHT22;8967;47.984;7.842;2023-11-22T13:50:34;5.90;99.90
17697;DHT22;8967;47.984;7.842;2023-11-22T13:53:02;5.90;99.90
17697;DHT22;8967;47.984;7.842;2023-11-22T13:55:29;5.90;99.90
17697;DHT22;8967;47.984;7.842;2023-11-22T13:57:57;5.90;99.90
17697;DHT22;8967;47.984;7.842;2023-11-22T14:00:30;5.90;99.90
17697;DHT22;8967;47.984;7.842;2023-11-22T14:03:01;5.80;99.90
17697;DHT22;8967;47.984;7.842;2023-11-22T14:05:32;5.80;99.90
17697;DHT22;8967;47.984;7.842;2023-11-22T14:12:55;5.90;99.90
17697;DHT22;8967;47.984;7.842;2023-11-22T14:15:26;5.90;99.90
17697;DHT22;8967;47.984;7.842;2023-11-22T14:29:56;5.80;99.90
17697;DHT22;8967;47.984;7.842;2023-11-22T14:32:23;5.90;99.90
17697;DHT22;8967;47.984;7.842;2023-11-22T14:34:50;5.90;99.90
17697;DHT22;8967;47.984;7.842;2023-11-22T14:37:19;5.90;99.90
17697;DHT22;8967;47.984;7.842;2023-11-22T14:39:46;5.90;99.90
17697;DHT22;8967;47.984;7.842;2023-11-22T14:42:14;5.90;99.90
17697;DHT22;8967;47.984;7.842;2023-11-22T14:44:41;5.80;99.90
17697;DHT22;8967;47.984;7.842;2023-11-22T14:47:10;5.80;99.90
17697;DHT22;8967;47.984;7.842;2023-11-22T14:49:42;5.80;99.90
17697;DHT22;8967;47.984;7.842;2023-11-22T14:52:10;5.90;99.90
17697;DHT22;8967;47.984;7.842;2023-11-22T14:54:37;5.90;99.90
17697;DHT22;8967;47.984;7.842;2023-11-22T14:57:08;5.90;99.90
17697;DHT22;8967;47.984;7.842;2023-11-22T14:59:38;5.90;99.90
17697;DHT22;8967;47.984;7.842;2023-11-22T15:02:07;5.90;99.90
17697;DHT22;8967;47.984;7.842;2023-11-22T15:04:36;5.90;99.90
17697;DHT22;8967;47.984;7.842;2023-11-22T15:07:03;5.90;99.90
17697;DHT22;8967;47.984;7.842;2023-11-22T15:09:31;5.90;99.90
17697;DHT22;8967;47.984;7.842;2023-11-22T15:11:59;5.80;99.90
17697;DHT22;8967;47.984;7.842;2023-11-22T15:14:28;5.80;99.90
17697;DHT22;8967;47.984;7.842;2023-11-22T15:16:55;5.80;99.90
17697;DHT22;8967;47.984;7.842;2023-11-22T15:19:22;5.80;99.90
17697;DHT22;8967;47.984;7.842;2023-11-22T15:21:54;5.70;99.90
17697;DHT22;8967;47.984;7.842;2023-11-22T15:24:21;5.70;99.90
17697;DHT22;8967;47.984;7.842;2023-11-22T15:26:48;5.70;99.90
17697;DHT22;8967;47.984;7.842;2023-11-22T15:29:15;5.70;99.90
17697;DHT22;8967;47.984;7.842;2023-11-22T15:31:43;5.70;99.90
17697;DHT22;8967;47.984;7.842;2023-11-22T15:34:10;5.70;99.90
17697;DHT22;8967;47.984;7.842;2023-11-22T15:36:38;5.70;99.90
17697;DHT22;8967;47.984;7.842;2023-11-22T15:39:07;5.70;99.90
17697;DHT22;8967;47.984;7.842;2023-11-22T15:41:43;5.70;99.90
17697;DHT22;8967;47.984;7.842;2023-11-22T15:44:10;5.70;99.90
17697;DHT22;8967;47.984;7.842;2023-11-22T15:46:41;5.70;99.90
17697;DHT22;8967;47.984;7.842;2023-11-22T15:49:09;5.70;99.90
17697;DHT22;8967;47.984;7.842;2023-11-22T15:51:36;5.70;99.90
17697;DHT22;8967;47.984;7.842;2023-11-22T15:54:04;5.70;99.90
17697;DHT22;8967;47.984;7.842;2023-11-22T15:56:35;5.70;99.90
17697;DHT22;8967;47.984;7.842;2023-11-22T15:59:04;5.70;99.90
17697;DHT22;8967;47.984;7.842;2023-11-22T16:26:42;5.60;99.90
17697;DHT22;8967;47.984;7.842;2023-11-22T16:29:09;5.60;99.90
17697;DHT22;8967;47.984;7.842;2023-11-22T16:31:37;5.60;99.90
17697;DHT22;8967;47.984;7.842;2023-11-22T16:34:06;5.50;99.90
17697;DHT22;8967;47.984;7.842;2023-11-22T16:36:36;5.50;99.90
17697;DHT22;8967;47.984;7.842;2023-11-22T16:39:04;5.50;99.90
17697;DHT22;8967;47.984;7.842;2023-11-22T16:41:32;5.50;99.90
17697;DHT22;8967;47.984;7.842;2023-11-22T16:44:01;5.50;99.90
17697;DHT22;8967;47.984;7.842;2023-11-22T16:46:30;5.50;99.90
17697;DHT22;8967;47.984;7.842;2023-11-22T16:48:58;5.50;99.90
17697;DHT22;8967;47.984;7.842;2023-11-22T16:51:26;5.50;99.90
17697;DHT22;8967;47.984;7.842;2023-11-22T16:53:53;5.50;99.90